Terminal Aerodrome Forecast
Issued by NWS Sterling, VA

Home | Current Version | Previous Version | Text Only | Print | Product List | Glossary On
Versions: 1 2 3 4 5 6 7 8 9 10 11 12 13 14 15
000
FTUS41 KLWX 252320
TAFCHO
TAF
KCHO 252320Z 2600/2624 VRB03KT P6SM BKN250
     FM260700 VRB03KT 2SM BR SCT002 BKN250
     FM261300 04006KT P6SM SCT040 SCT250=

USA.gov is the U.S. government's official web portal to all federal, state and local government web resources and services.